sensor_id;sensor_type;location;lat;lon;timestamp;P1;durP1;ratioP1;P2;durP2;ratioP2
76807;SDS011;65758;45.458;11.062;2024-02-15T00:00:00;15.70;;;9.10;;
76807;SDS011;65758;45.458;11.062;2024-02-15T00:02:29;15.70;;;9.70;;
76807;SDS011;65758;45.458;11.062;2024-02-15T00:04:56;14.80;;;9.30;;
76807;SDS011;65758;45.458;11.062;2024-02-15T00:07:23;14.70;;;9.50;;
76807;SDS011;65758;45.458;11.062;2024-02-15T00:09:50;15.90;;;9.90;;
76807;SDS011;65758;45.458;11.062;2024-02-15T00:12:18;14.20;;;9.00;;
76807;SDS011;65758;45.458;11.062;2024-02-15T00:14:45;14.60;;;9.30;;
76807;SDS011;65758;45.458;11.062;2024-02-15T00:17:12;11.40;;;7.80;;
76807;SDS011;65758;45.458;11.062;2024-02-15T00:19:39;14.20;;;9.10;;
76807;SDS011;65758;45.458;11.062;2024-02-15T00:22:09;13.80;;;9.10;;
76807;SDS011;65758;45.458;11.062;2024-02-15T00:24:37;18.00;;;11.10;;
76807;SDS011;65758;45.458;11.062;2024-02-15T00:27:05;18.20;;;11.50;;
76807;SDS011;65758;45.458;11.062;2024-02-15T00:29:32;17.10;;;10.40;;
76807;SDS011;65758;45.458;11.062;2024-02-15T00:32:01;17.50;;;9.80;;
76807;SDS011;65758;45.458;11.062;2024-02-15T00:34:31;17.20;;;10.20;;
76807;SDS011;65758;45.458;11.062;2024-02-15T00:36:58;13.10;;;9.00;;
76807;SDS011;65758;45.458;11.062;2024-02-15T00:39:25;18.20;;;11.20;;
76807;SDS011;65758;45.458;11.062;2024-02-15T00:41:52;15.40;;;10.10;;
76807;SDS011;65758;45.458;11.062;2024-02-15T00:44:19;15.40;;;10.00;;
76807;SDS011;65758;45.458;11.062;2024-02-15T00:46:45;15.20;;;9.60;;
76807;SDS011;65758;45.458;11.062;2024-02-15T00:49:14;15.30;;;9.30;;
76807;SDS011;65758;45.458;11.062;2024-02-15T00:51:42;16.40;;;11.30;;
76807;SDS011;65758;45.458;11.062;2024-02-15T00:54:09;14.80;;;9.50;;
76807;SDS011;65758;45.458;11.062;2024-02-15T00:56:36;16.30;;;10.50;;
76807;SDS011;65758;45.458;11.062;2024-02-15T00:59:03;15.80;;;10.90;;
76807;SDS011;65758;45.458;11.062;2024-02-15T01:01:32;14.70;;;9.10;;
76807;SDS011;65758;45.458;11.062;2024-02-15T01:03:59;15.80;;;9.40;;
76807;SDS011;65758;45.458;11.062;2024-02-15T01:06:26;16.50;;;11.40;;
76807;SDS011;65758;45.458;11.062;2024-02-15T01:08:53;18.80;;;11.80;;
76807;SDS011;65758;45.458;11.062;2024-02-15T01:11:20;14.20;;;10.00;;
76807;SDS011;65758;45.458;11.062;2024-02-15T01:13:47;17.80;;;11.50;;
76807;SDS011;65758;45.458;11.062;2024-02-15T01:16:14;17.50;;;11.70;;
76807;SDS011;65758;45.458;11.062;2024-02-15T01:18:42;20.50;;;11.40;;
76807;SDS011;65758;45.458;11.062;2024-02-15T01:21:09;17.00;;;11.80;;
76807;SDS011;65758;45.458;11.062;2024-02-15T01:23:38;13.80;;;10.80;;
76807;SDS011;65758;45.458;11.062;2024-02-15T01:26:06;17.70;;;10.90;;
76807;SDS011;65758;45.458;11.062;2024-02-15T01:28:32;16.90;;;11.40;;
76807;SDS011;65758;45.458;11.062;2024-02-15T01:33:26;17.10;;;11.70;;
76807;SDS011;65758;45.458;11.062;2024-02-15T01:35:54;24.90;;;16.20;;
76807;SDS011;65758;45.458;11.062;2024-02-15T01:38:21;32.30;;;19.80;;
76807;SDS011;65758;45.458;11.062;2024-02-15T01:40:48;30.70;;;20.20;;
76807;SDS011;65758;45.458;11.062;2024-02-15T01:43:15;30.50;;;19.10;;
76807;SDS011;65758;45.458;11.062;2024-02-15T01:46:02;25.10;;;16.90;;
76807;SDS011;65758;45.458;11.062;2024-02-15T01:48:39;18.70;;;13.10;;
76807;SDS011;65758;45.458;11.062;2024-02-15T01:51:08;16.10;;;11.30;;
76807;SDS011;65758;45.458;11.062;2024-02-15T01:53:38;18.30;;;12.50;;
76807;SDS011;65758;45.458;11.062;2024-02-15T01:56:07;33.80;;;19.60;;
76807;SDS011;65758;45.458;11.062;2024-02-15T01:58:34;30.30;;;19.70;;
76807;SDS011;65758;45.458;11.062;2024-02-15T02:01:02;39.50;;;22.30;;
76807;SDS011;65758;45.458;11.062;2024-02-15T02:03:30;35.40;;;22.10;;
76807;SDS011;65758;45.458;11.062;2024-02-15T02:05:57;33.40;;;21.40;;
76807;SDS011;65758;45.458;11.062;2024-02-15T02:08:26;33.00;;;21.20;;
76807;SDS011;65758;45.458;11.062;2024-02-15T02:10:53;33.60;;;21.40;;
76807;SDS011;65758;45.458;11.062;2024-02-15T02:13:20;32.30;;;20.70;;
76807;SDS011;65758;45.458;11.062;2024-02-15T02:15:47;30.50;;;19.40;;
76807;SDS011;65758;45.458;11.062;2024-02-15T02:18:14;22.00;;;15.70;;
76807;SDS011;65758;45.458;11.062;2024-02-15T02:20:42;18.30;;;12.80;;
76807;SDS011;65758;45.458;11.062;2024-02-15T02:23:15;18.70;;;12.50;;
76807;SDS011;65758;45.458;11.062;2024-02-15T02:25:45;19.90;;;13.00;;
76807;SDS011;65758;45.458;11.062;2024-02-15T02:28:16;18.00;;;11.80;;
76807;SDS011;65758;45.458;11.062;2024-02-15T02:30:43;19.20;;;12.00;;
76807;SDS011;65758;45.458;11.062;2024-02-15T02:33:12;22.20;;;13.40;;
76807;SDS011;65758;45.458;11.062;2024-02-15T02:35:49;23.20;;;15.60;;
76807;SDS011;65758;45.458;11.062;2024-02-15T02:38:16;25.40;;;16.50;;
76807;SDS011;65758;45.458;11.062;2024-02-15T02:40:43;27.10;;;17.40;;
76807;SDS011;65758;45.458;11.062;2024-02-15T02:43:10;32.70;;;20.20;;
76807;SDS011;65758;45.458;11.062;2024-02-15T02:45:38;27.10;;;18.90;;
76807;SDS011;65758;45.458;11.062;2024-02-15T02:48:05;28.50;;;19.80;;
76807;SDS011;65758;45.458;11.062;2024-02-15T02:50:33;28.30;;;19.70;;
76807;SDS011;65758;45.458;11.062;2024-02-15T02:53:00;28.90;;;19.00;;
76807;SDS011;65758;45.458;11.062;2024-02-15T02:55:27;26.60;;;18.00;;
76807;SDS011;65758;45.458;11.062;2024-02-15T02:57:54;28.00;;;17.60;;
76807;SDS011;65758;45.458;11.062;2024-02-15T03:00:22;24.80;;;17.50;;
76807;SDS011;65758;45.458;11.062;2024-02-15T03:02:49;29.00;;;17.90;;
76807;SDS011;65758;45.458;11.062;2024-02-15T03:05:17;25.70;;;18.30;;
76807;SDS011;65758;45.458;11.062;2024-02-15T03:07:48;26.70;;;18.50;;
76807;SDS011;65758;45.458;11.062;2024-02-15T03:10:15;26.80;;;18.30;;
76807;SDS011;65758;45.458;11.062;2024-02-15T03:12:42;26.90;;;18.40;;
76807;SDS011;65758;45.458;11.062;2024-02-15T03:15:15;26.10;;;17.70;;
76807;SDS011;65758;45.458;11.062;2024-02-15T03:17:45;30.10;;;17.50;;
76807;SDS011;65758;45.458;11.062;2024-02-15T03:20:14;27.90;;;17.70;;
76807;SDS011;65758;45.458;11.062;2024-02-15T03:22:55;26.70;;;17.80;;
76807;SDS011;65758;45.458;11.062;2024-02-15T03:25:24;23.50;;;16.10;;
76807;SDS011;65758;45.458;11.062;2024-02-15T03:27:52;25.50;;;17.70;;
76807;SDS011;65758;45.458;11.062;2024-02-15T03:30:21;24.10;;;17.20;;
76807;SDS011;65758;45.458;11.062;2024-02-15T03:32:50;24.60;;;17.40;;
76807;SDS011;65758;45.458;11.062;2024-02-15T03:35:18;26.60;;;17.30;;
76807;SDS011;65758;45.458;11.062;2024-02-15T03:37:49;23.10;;;16.50;;
76807;SDS011;65758;45.458;11.062;2024-02-15T03:40:19;27.60;;;16.50;;
76807;SDS011;65758;45.458;11.062;2024-02-15T03:42:47;26.10;;;17.60;;
76807;SDS011;65758;45.458;11.062;2024-02-15T03:45:14;23.60;;;16.20;;
76807;SDS011;65758;45.458;11.062;2024-02-15T03:47:41;24.30;;;16.10;;
76807;SDS011;65758;45.458;11.062;2024-02-15T03:50:08;24.40;;;14.50;;
76807;SDS011;65758;45.458;11.062;2024-02-15T03:52:41;23.20;;;14.40;;
76807;SDS011;65758;45.458;11.062;2024-02-15T03:55:08;23.30;;;14.00;;
76807;SDS011;65758;45.458;11.062;2024-02-15T03:57:37;22.70;;;15.00;;
76807;SDS011;65758;45.458;11.062;2024-02-15T04:00:07;22.10;;;15.00;;
76807;SDS011;65758;45.458;11.062;2024-02-15T04:02:37;23.50;;;14.50;;
76807;SDS011;65758;45.458;11.062;2024-02-15T04:05:07;24.60;;;14.40;;
76807;SDS011;65758;45.458;11.062;2024-02-15T04:07:36;22.30;;;14.10;;
76807;SDS011;65758;45.458;11.062;2024-02-15T04:10:07;29.60;;;16.10;;
76807;SDS011;65758;45.458;11.062;2024-02-15T04:12:35;21.70;;;15.10;;
76807;SDS011;65758;45.458;11.062;2024-02-15T04:15:03;21.70;;;14.20;;
76807;SDS011;65758;45.458;11.062;2024-02-15T04:17:39;24.80;;;15.00;;
76807;SDS011;65758;45.458;11.062;2024-02-15T04:20:08;24.10;;;14.60;;
76807;SDS011;65758;45.458;11.062;2024-02-15T04:22:36;22.20;;;14.70;;
76807;SDS011;65758;45.458;11.062;2024-02-15T04:25:06;23.60;;;15.20;;
76807;SDS011;65758;45.458;11.062;2024-02-15T04:27:36;25.90;;;15.90;;
76807;SDS011;65758;45.458;11.062;2024-02-15T04:30:03;24.30;;;16.20;;
76807;SDS011;65758;45.458;11.062;2024-02-15T04:32:32;25.70;;;16.00;;
76807;SDS011;65758;45.458;11.062;2024-02-15T04:35:01;21.40;;;13.70;;
76807;SDS011;65758;45.458;11.062;2024-02-15T04:37:30;23.30;;;14.60;;
76807;SDS011;65758;45.458;11.062;2024-02-15T04:39:59;21.20;;;14.90;;
76807;SDS011;65758;45.458;11.062;2024-02-15T04:42:34;22.70;;;14.70;;
76807;SDS011;65758;45.458;11.062;2024-02-15T04:45:02;25.90;;;14.70;;
76807;SDS011;65758;45.458;11.062;2024-02-15T04:47:32;24.70;;;16.10;;
76807;SDS011;65758;45.458;11.062;2024-02-15T04:49:59;23.10;;;15.30;;
76807;SDS011;65758;45.458;11.062;2024-02-15T04:52:26;26.10;;;15.50;;
76807;SDS011;65758;45.458;11.062;2024-02-15T04:54:53;26.50;;;17.00;;
76807;SDS011;65758;45.458;11.062;2024-02-15T04:57:21;25.20;;;16.90;;
76807;SDS011;65758;45.458;11.062;2024-02-15T04:59:48;25.00;;;16.30;;
76807;SDS011;65758;45.458;11.062;2024-02-15T05:02:16;26.30;;;17.90;;
76807;SDS011;65758;45.458;11.062;2024-02-15T05:04:44;31.70;;;19.20;;
76807;SDS011;65758;45.458;11.062;2024-02-15T05:07:11;30.00;;;19.70;;
76807;SDS011;65758;45.458;11.062;2024-02-15T05:09:38;29.60;;;19.00;;
76807;SDS011;65758;45.458;11.062;2024-02-15T05:12:05;30.70;;;19.90;;
76807;SDS011;65758;45.458;11.062;2024-02-15T05:14:32;33.00;;;21.10;;
76807;SDS011;65758;45.458;11.062;2024-02-15T05:16:59;31.40;;;20.40;;
76807;SDS011;65758;45.458;11.062;2024-02-15T05:19:26;26.40;;;18.40;;
76807;SDS011;65758;45.458;11.062;2024-02-15T05:21:54;32.90;;;19.50;;
76807;SDS011;65758;45.458;11.062;2024-02-15T05:24:22;33.80;;;19.60;;
76807;SDS011;65758;45.458;11.062;2024-02-15T05:26:49;30.80;;;18.30;;
76807;SDS011;65758;45.458;11.062;2024-02-15T05:29:17;30.20;;;17.60;;
76807;SDS011;65758;45.458;11.062;2024-02-15T05:31:44;26.80;;;17.10;;
76807;SDS011;65758;45.458;11.062;2024-02-15T05:34:12;28.50;;;17.90;;
76807;SDS011;65758;45.458;11.062;2024-02-15T05:36:39;27.90;;;17.70;;
76807;SDS011;65758;45.458;11.062;2024-02-15T05:39:06;28.50;;;18.60;;
76807;SDS011;65758;45.458;11.062;2024-02-15T05:41:34;27.30;;;17.80;;
76807;SDS011;65758;45.458;11.062;2024-02-15T05:44:01;28.70;;;18.10;;
76807;SDS011;65758;45.458;11.062;2024-02-15T05:46:33;30.60;;;17.70;;
76807;SDS011;65758;45.458;11.062;2024-02-15T05:49:04;27.20;;;17.90;;
76807;SDS011;65758;45.458;11.062;2024-02-15T05:51:32;27.90;;;17.70;;
76807;SDS011;65758;45.458;11.062;2024-02-15T05:54:00;30.60;;;18.30;;
76807;SDS011;65758;45.458;11.062;2024-02-15T05:56:27;28.50;;;18.30;;
76807;SDS011;65758;45.458;11.062;2024-02-15T05:58:56;30.00;;;18.40;;
76807;SDS011;65758;45.458;11.062;2024-02-15T06:01:23;28.40;;;17.30;;
76807;SDS011;65758;45.458;11.062;2024-02-15T06:03:51;30.50;;;18.10;;
76807;SDS011;65758;45.458;11.062;2024-02-15T06:06:22;29.10;;;18.40;;
76807;SDS011;65758;45.458;11.062;2024-02-15T06:08:50;27.50;;;18.00;;
76807;SDS011;65758;45.458;11.062;2024-02-15T06:11:20;26.70;;;17.80;;
76807;SDS011;65758;45.458;11.062;2024-02-15T06:13:47;27.60;;;18.10;;
76807;SDS011;65758;45.458;11.062;2024-02-15T06:16:14;30.30;;;18.80;;
76807;SDS011;65758;45.458;11.062;2024-02-15T06:18:41;28.50;;;17.40;;
76807;SDS011;65758;45.458;11.062;2024-02-15T06:21:08;27.80;;;17.40;;
76807;SDS011;65758;45.458;11.062;2024-02-15T06:23:35;32.80;;;18.70;;
76807;SDS011;65758;45.458;11.062;2024-02-15T06:26:04;27.60;;;18.30;;
76807;SDS011;65758;45.458;11.062;2024-02-15T06:28:31;29.90;;;19.10;;
76807;SDS011;65758;45.458;11.062;2024-02-15T06:31:17;26.60;;;16.10;;
76807;SDS011;65758;45.458;11.062;2024-02-15T06:34:02;26.40;;;17.30;;
76807;SDS011;65758;45.458;11.062;2024-02-15T06:36:49;29.10;;;18.20;;
76807;SDS011;65758;45.458;11.062;2024-02-15T06:39:35;32.30;;;18.80;;
76807;SDS011;65758;45.458;11.062;2024-02-15T06:42:09;29.90;;;18.60;;
76807;SDS011;65758;45.458;11.062;2024-02-15T06:44:38;27.00;;;17.70;;
76807;SDS011;65758;45.458;11.062;2024-02-15T06:47:07;25.30;;;18.70;;
76807;SDS011;65758;45.458;11.062;2024-02-15T06:49:37;27.80;;;18.20;;
76807;SDS011;65758;45.458;11.062;2024-02-15T06:52:07;31.70;;;18.70;;
76807;SDS011;65758;45.458;11.062;2024-02-15T06:54:34;27.40;;;17.70;;
76807;SDS011;65758;45.458;11.062;2024-02-15T06:57:02;31.20;;;17.40;;
76807;SDS011;65758;45.458;11.062;2024-02-15T06:59:31;28.90;;;17.80;;
76807;SDS011;65758;45.458;11.062;2024-02-15T07:01:59;32.50;;;21.10;;
76807;SDS011;65758;45.458;11.062;2024-02-15T07:04:27;31.30;;;18.00;;
76807;SDS011;65758;45.458;11.062;2024-02-15T07:06:54;31.30;;;17.60;;
76807;SDS011;65758;45.458;11.062;2024-02-15T07:09:22;31.70;;;19.50;;
76807;SDS011;65758;45.458;11.062;2024-02-15T07:11:51;28.50;;;17.30;;
76807;SDS011;65758;45.458;11.062;2024-02-15T07:14:18;32.10;;;18.90;;
76807;SDS011;65758;45.458;11.062;2024-02-15T07:16:46;29.40;;;18.20;;
76807;SDS011;65758;45.458;11.062;2024-02-15T07:19:16;25.70;;;18.70;;
76807;SDS011;65758;45.458;11.062;2024-02-15T07:21:44;24.70;;;18.50;;
76807;SDS011;65758;45.458;11.062;2024-02-15T07:24:13;27.10;;;19.20;;
76807;SDS011;65758;45.458;11.062;2024-02-15T07:26:41;28.90;;;19.10;;
76807;SDS011;65758;45.458;11.062;2024-02-15T07:29:08;25.40;;;18.30;;
76807;SDS011;65758;45.458;11.062;2024-02-15T07:31:35;31.90;;;19.30;;
76807;SDS011;65758;45.458;11.062;2024-02-15T07:34:02;24.00;;;17.20;;
76807;SDS011;65758;45.458;11.062;2024-02-15T07:36:33;26.30;;;18.10;;
76807;SDS011;65758;45.458;11.062;2024-02-15T07:39:00;30.40;;;19.20;;
76807;SDS011;65758;45.458;11.062;2024-02-15T07:41:30;27.10;;;19.70;;
76807;SDS011;65758;45.458;11.062;2024-02-15T07:44:00;33.10;;;19.20;;
76807;SDS011;65758;45.458;11.062;2024-02-15T07:46:28;28.50;;;19.50;;
76807;SDS011;65758;45.458;11.062;2024-02-15T07:48:55;29.90;;;20.00;;
76807;SDS011;65758;45.458;11.062;2024-02-15T07:51:24;29.90;;;19.30;;
76807;SDS011;65758;45.458;11.062;2024-02-15T07:53:51;30.80;;;20.40;;
76807;SDS011;65758;45.458;11.062;2024-02-15T07:56:19;26.50;;;19.10;;
76807;SDS011;65758;45.458;11.062;2024-02-15T07:58:47;32.00;;;19.40;;
76807;SDS011;65758;45.458;11.062;2024-02-15T08:01:20;32.10;;;21.00;;
76807;SDS011;65758;45.458;11.062;2024-02-15T08:03:48;45.50;;;24.90;;
76807;SDS011;65758;45.458;11.062;2024-02-15T08:06:16;34.90;;;22.30;;
76807;SDS011;65758;45.458;11.062;2024-02-15T08:08:44;30.20;;;20.80;;
76807;SDS011;65758;45.458;11.062;2024-02-15T08:11:14;32.80;;;21.20;;
76807;SDS011;65758;45.458;11.062;2024-02-15T08:16:18;29.10;;;21.70;;
76807;SDS011;65758;45.458;11.062;2024-02-15T08:18:46;31.50;;;21.00;;
76807;SDS011;65758;45.458;11.062;2024-02-15T08:21:13;31.90;;;21.10;;
76807;SDS011;65758;45.458;11.062;2024-02-15T08:23:41;34.20;;;21.70;;
76807;SDS011;65758;45.458;11.062;2024-02-15T08:26:09;32.70;;;21.70;;
76807;SDS011;65758;45.458;11.062;2024-02-15T08:28:39;33.30;;;23.30;;
76807;SDS011;65758;45.458;11.062;2024-02-15T08:31:06;34.20;;;22.70;;
76807;SDS011;65758;45.458;11.062;2024-02-15T08:33:34;33.90;;;22.30;;
76807;SDS011;65758;45.458;11.062;2024-02-15T08:36:03;34.50;;;22.80;;
76807;SDS011;65758;45.458;11.062;2024-02-15T08:38:32;34.60;;;22.80;;
76807;SDS011;65758;45.458;11.062;2024-02-15T08:41:00;38.70;;;25.30;;
76807;SDS011;65758;45.458;11.062;2024-02-15T08:43:26;34.20;;;23.40;;
76807;SDS011;65758;45.458;11.062;2024-02-15T08:45:53;32.70;;;23.10;;
76807;SDS011;65758;45.458;11.062;2024-02-15T08:48:20;36.10;;;25.30;;
76807;SDS011;65758;45.458;11.062;2024-02-15T08:50:49;37.00;;;24.80;;
76807;SDS011;65758;45.458;11.062;2024-02-15T08:53:17;37.50;;;26.10;;
76807;SDS011;65758;45.458;11.062;2024-02-15T08:55:45;34.80;;;25.00;;
76807;SDS011;65758;45.458;11.062;2024-02-15T08:58:12;35.60;;;23.50;;
76807;SDS011;65758;45.458;11.062;2024-02-15T09:00:39;38.90;;;24.30;;
76807;SDS011;65758;45.458;11.062;2024-02-15T09:03:11;34.60;;;23.90;;
76807;SDS011;65758;45.458;11.062;2024-02-15T09:05:41;36.10;;;23.90;;
76807;SDS011;65758;45.458;11.062;2024-02-15T09:08:08;33.60;;;22.70;;
76807;SDS011;65758;45.458;11.062;2024-02-15T09:10:35;34.90;;;22.80;;
76807;SDS011;65758;45.458;11.062;2024-02-15T09:13:03;41.40;;;26.60;;
76807;SDS011;65758;45.458;11.062;2024-02-15T09:15:30;42.70;;;27.70;;
76807;SDS011;65758;45.458;11.062;2024-02-15T09:17:57;45.00;;;29.90;;
76807;SDS011;65758;45.458;11.062;2024-02-15T09:20:24;47.40;;;31.00;;
76807;SDS011;65758;45.458;11.062;2024-02-15T09:22:54;41.60;;;28.20;;
76807;SDS011;65758;45.458;11.062;2024-02-15T09:25:22;43.80;;;29.60;;
76807;SDS011;65758;45.458;11.062;2024-02-15T09:27:50;45.20;;;29.20;;
76807;SDS011;65758;45.458;11.062;2024-02-15T09:30:18;43.40;;;28.00;;
76807;SDS011;65758;45.458;11.062;2024-02-15T09:32:45;41.40;;;29.20;;
76807;SDS011;65758;45.458;11.062;2024-02-15T09:35:12;41.80;;;26.90;;
76807;SDS011;65758;45.458;11.062;2024-02-15T09:37:47;43.10;;;28.20;;
76807;SDS011;65758;45.458;11.062;2024-02-15T09:40:18;45.20;;;29.10;;
76807;SDS011;65758;45.458;11.062;2024-02-15T09:42:46;42.00;;;28.50;;
76807;SDS011;65758;45.458;11.062;2024-02-15T09:45:14;35.10;;;24.50;;
76807;SDS011;65758;45.458;11.062;2024-02-15T09:47:44;47.00;;;32.20;;
76807;SDS011;65758;45.458;11.062;2024-02-15T09:50:12;47.50;;;30.80;;
76807;SDS011;65758;45.458;11.062;2024-02-15T09:52:45;47.10;;;31.90;;
76807;SDS011;65758;45.458;11.062;2024-02-15T09:55:19;43.20;;;30.60;;
76807;SDS011;65758;45.458;11.062;2024-02-15T09:57:50;48.70;;;33.00;;
76807;SDS011;65758;45.458;11.062;2024-02-15T10:00:17;44.80;;;30.90;;
76807;SDS011;65758;45.458;11.062;2024-02-15T10:02:49;42.70;;;31.90;;
76807;SDS011;65758;45.458;11.062;2024-02-15T10:05:17;48.50;;;31.00;;
76807;SDS011;65758;45.458;11.062;2024-02-15T10:07:45;48.80;;;33.40;;
76807;SDS011;65758;45.458;11.062;2024-02-15T10:10:16;52.40;;;31.70;;
76807;SDS011;65758;45.458;11.062;2024-02-15T10:12:54;44.60;;;28.90;;
76807;SDS011;65758;45.458;11.062;2024-02-15T10:15:34;48.40;;;30.80;;
76807;SDS011;65758;45.458;11.062;2024-02-15T10:18:05;47.00;;;27.90;;
76807;SDS011;65758;45.458;11.062;2024-02-15T10:20:40;48.70;;;32.80;;
76807;SDS011;65758;45.458;11.062;2024-02-15T10:23:12;44.10;;;30.40;;
76807;SDS011;65758;45.458;11.062;2024-02-15T10:25:44;47.80;;;30.50;;
76807;SDS011;65758;45.458;11.062;2024-02-15T10:28:12;41.30;;;29.00;;
76807;SDS011;65758;45.458;11.062;2024-02-15T10:30:43;46.40;;;29.50;;
76807;SDS011;65758;45.458;11.062;2024-02-15T10:33:19;53.00;;;32.70;;
76807;SDS011;65758;45.458;11.062;2024-02-15T10:36:05;39.90;;;27.90;;
76807;SDS011;65758;45.458;11.062;2024-02-15T10:38:35;42.30;;;28.80;;
76807;SDS011;65758;45.458;11.062;2024-02-15T10:41:03;47.50;;;30.60;;
76807;SDS011;65758;45.458;11.062;2024-02-15T10:43:35;45.00;;;31.50;;
76807;SDS011;65758;45.458;11.062;2024-02-15T10:46:05;44.90;;;32.70;;
76807;SDS011;65758;45.458;11.062;2024-02-15T10:48:36;51.00;;;31.80;;
76807;SDS011;65758;45.458;11.062;2024-02-15T10:51:08;47.90;;;34.70;;
76807;SDS011;65758;45.458;11.062;2024-02-15T10:53:38;43.70;;;28.30;;
76807;SDS011;65758;45.458;11.062;2024-02-15T10:56:15;48.30;;;33.20;;
76807;SDS011;65758;45.458;11.062;2024-02-15T11:01:40;45.10;;;30.50;;
76807;SDS011;65758;45.458;11.062;2024-02-15T11:04:12;49.00;;;31.20;;
76807;SDS011;65758;45.458;11.062;2024-02-15T11:06:42;50.20;;;34.50;;
76807;SDS011;65758;45.458;11.062;2024-02-15T11:09:11;51.80;;;33.30;;
76807;SDS011;65758;45.458;11.062;2024-02-15T11:11:40;48.50;;;34.20;;
76807;SDS011;65758;45.458;11.062;2024-02-15T11:16:59;44.90;;;31.00;;
76807;SDS011;65758;45.458;11.062;2024-02-15T11:22:08;45.70;;;31.50;;
76807;SDS011;65758;45.458;11.062;2024-02-15T11:24:45;41.70;;;29.80;;
76807;SDS011;65758;45.458;11.062;2024-02-15T11:27:23;43.70;;;30.50;;
76807;SDS011;65758;45.458;11.062;2024-02-15T11:29:57;47.80;;;33.50;;
76807;SDS011;65758;45.458;11.062;2024-02-15T11:32:45;37.60;;;26.90;;
76807;SDS011;65758;45.458;11.062;2024-02-15T11:35:21;39.50;;;29.10;;
76807;SDS011;65758;45.458;11.062;2024-02-15T11:40:22;43.20;;;28.60;;
76807;SDS011;65758;45.458;11.062;2024-02-15T11:42:51;42.40;;;28.80;;
76807;SDS011;65758;45.458;11.062;2024-02-15T11:45:21;45.20;;;30.60;;
76807;SDS011;65758;45.458;11.062;2024-02-15T11:47:50;50.10;;;32.80;;
76807;SDS011;65758;45.458;11.062;2024-02-15T11:50:18;47.20;;;33.30;;
76807;SDS011;65758;45.458;11.062;2024-02-15T11:52:48;41.50;;;29.40;;
76807;SDS011;65758;45.458;11.062;2024-02-15T11:55:20;41.80;;;28.30;;
76807;SDS011;65758;45.458;11.062;2024-02-15T11:57:55;45.10;;;32.20;;
76807;SDS011;65758;45.458;11.062;2024-02-15T12:00:38;44.80;;;30.20;;
76807;SDS011;65758;45.458;11.062;2024-02-15T12:03:25;44.10;;;30.20;;
76807;SDS011;65758;45.458;11.062;2024-02-15T12:06:28;43.80;;;29.70;;
76807;SDS011;65758;45.458;11.062;2024-02-15T12:09:19;42.40;;;29.70;;
76807;SDS011;65758;45.458;11.062;2024-02-15T12:12:06;47.70;;;31.80;;
76807;SDS011;65758;45.458;11.062;2024-02-15T12:14:58;46.50;;;32.20;;
76807;SDS011;65758;45.458;11.062;2024-02-15T12:17:48;38.90;;;28.30;;
76807;SDS011;65758;45.458;11.062;2024-02-15T12:20:34;44.40;;;31.50;;
76807;SDS011;65758;45.458;11.062;2024-02-15T12:23:02;45.20;;;32.20;;
76807;SDS011;65758;45.458;11.062;2024-02-15T12:25:30;45.00;;;33.10;;
76807;SDS011;65758;45.458;11.062;2024-02-15T12:28:00;48.10;;;33.00;;
76807;SDS011;65758;45.458;11.062;2024-02-15T12:30:34;48.90;;;33.70;;
76807;SDS011;65758;45.458;11.062;2024-02-15T12:33:10;52.00;;;35.10;;
76807;SDS011;65758;45.458;11.062;2024-02-15T12:35:40;50.60;;;34.40;;
76807;SDS011;65758;45.458;11.062;2024-02-15T12:38:09;53.20;;;36.70;;
76807;SDS011;65758;45.458;11.062;2024-02-15T12:40:45;54.50;;;35.10;;
76807;SDS011;65758;45.458;11.062;2024-02-15T12:43:14;50.10;;;34.80;;
76807;SDS011;65758;45.458;11.062;2024-02-15T12:45:42;47.10;;;34.90;;
76807;SDS011;65758;45.458;11.062;2024-02-15T12:48:09;55.10;;;37.60;;
76807;SDS011;65758;45.458;11.062;2024-02-15T12:50:42;47.50;;;34.10;;
76807;SDS011;65758;45.458;11.062;2024-02-15T12:53:09;48.70;;;34.10;;
76807;SDS011;65758;45.458;11.062;2024-02-15T12:55:38;55.00;;;35.60;;
76807;SDS011;65758;45.458;11.062;2024-02-15T12:58:07;45.90;;;33.30;;
76807;SDS011;65758;45.458;11.062;2024-02-15T13:00:43;55.50;;;39.20;;
76807;SDS011;65758;45.458;11.062;2024-02-15T13:03:11;52.30;;;36.70;;
76807;SDS011;65758;45.458;11.062;2024-02-15T13:05:41;58.60;;;38.50;;
76807;SDS011;65758;45.458;11.062;2024-02-15T13:08:09;53.70;;;37.90;;
76807;SDS011;65758;45.458;11.062;2024-02-15T13:10:44;53.10;;;36.30;;
76807;SDS011;65758;45.458;11.062;2024-02-15T13:13:11;49.70;;;35.40;;
76807;SDS011;65758;45.458;11.062;2024-02-15T13:15:41;47.90;;;34.70;;
76807;SDS011;65758;45.458;11.062;2024-02-15T13:18:09;46.40;;;34.50;;
76807;SDS011;65758;45.458;11.062;2024-02-15T13:20:38;55.40;;;37.10;;
76807;SDS011;65758;45.458;11.062;2024-02-15T13:23:06;52.90;;;36.40;;
76807;SDS011;65758;45.458;11.062;2024-02-15T13:25:36;52.20;;;34.80;;
76807;SDS011;65758;45.458;11.062;2024-02-15T13:28:07;53.60;;;38.20;;
76807;SDS011;65758;45.458;11.062;2024-02-15T13:30:37;56.20;;;37.70;;
76807;SDS011;65758;45.458;11.062;2024-02-15T13:33:03;54.80;;;39.10;;
76807;SDS011;65758;45.458;11.062;2024-02-15T13:35:31;56.90;;;37.90;;
76807;SDS011;65758;45.458;11.062;2024-02-15T13:37:59;55.70;;;38.80;;
76807;SDS011;65758;45.458;11.062;2024-02-15T13:40:26;50.60;;;34.40;;
76807;SDS011;65758;45.458;11.062;2024-02-15T13:42:55;46.70;;;34.20;;
76807;SDS011;65758;45.458;11.062;2024-02-15T13:45:29;53.20;;;37.40;;
76807;SDS011;65758;45.458;11.062;2024-02-15T13:48:10;55.50;;;36.20;;
76807;SDS011;65758;45.458;11.062;2024-02-15T13:50:42;49.20;;;34.10;;
76807;SDS011;65758;45.458;11.062;2024-02-15T13:53:11;50.70;;;34.70;;
76807;SDS011;65758;45.458;11.062;2024-02-15T13:55:40;47.70;;;33.40;;
76807;SDS011;65758;45.458;11.062;2024-02-15T13:58:07;52.20;;;35.50;;
76807;SDS011;65758;45.458;11.062;2024-02-15T14:00:39;54.80;;;34.90;;
76807;SDS011;65758;45.458;11.062;2024-02-15T14:03:10;53.70;;;34.70;;
76807;SDS011;65758;45.458;11.062;2024-02-15T14:05:38;52.80;;;36.00;;
76807;SDS011;65758;45.458;11.062;2024-02-15T14:08:08;50.40;;;34.00;;
76807;SDS011;65758;45.458;11.062;2024-02-15T14:10:35;52.10;;;36.00;;
76807;SDS011;65758;45.458;11.062;2024-02-15T14:13:03;55.20;;;37.00;;
76807;SDS011;65758;45.458;11.062;2024-02-15T14:15:33;52.80;;;35.90;;
76807;SDS011;65758;45.458;11.062;2024-02-15T14:18:07;54.20;;;36.90;;
76807;SDS011;65758;45.458;11.062;2024-02-15T14:20:45;52.60;;;35.30;;
76807;SDS011;65758;45.458;11.062;2024-02-15T14:23:16;54.70;;;37.30;;
76807;SDS011;65758;45.458;11.062;2024-02-15T14:25:43;43.50;;;30.80;;
76807;SDS011;65758;45.458;11.062;2024-02-15T14:28:13;55.90;;;37.70;;
76807;SDS011;65758;45.458;11.062;2024-02-15T14:30:42;51.40;;;35.50;;
76807;SDS011;65758;45.458;11.062;2024-02-15T14:33:28;57.50;;;39.40;;
76807;SDS011;65758;45.458;11.062;2024-02-15T14:36:00;49.00;;;33.00;;
76807;SDS011;65758;45.458;11.062;2024-02-15T14:38:28;54.80;;;37.60;;